Time;durP1;ratioP1;P1;durP2;ratioP2;P2;SDS_P1;SDS_P2;PMS_P1;PMS_P2;Temp;Humidity;BMP_temperature;BMP_pressure;BME280_temperature;BME280_humidity;BME280_pressure;Samples;Min_cycle;Max_cycle;Signal;HPM_P1;HPM_P2
2022/06/01 00:00:55;;;;;;;5.70;5.40;;;13.70;99.90;;;;;;5071761;28;20255;-45
2022/06/01 00:03:25;;;;;;;5.00;4.60;;;13.70;99.90;;;;;;5067888;28;20246;-45
2022/06/01 00:05:53;;;;;;;5.20;4.80;;;13.70;99.90;;;;;;5072622;28;20691;-45
2022/06/01 00:08:22;;;;;;;7.50;6.70;;;13.70;99.90;;;;;;5070821;28;20213;-45
2022/06/01 00:10:49;;;;;;;5.53;5.20;;;13.70;99.90;;;;;;5071210;28;20615;-45
2022/06/01 00:13:16;;;;;;;6.40;6.00;;;13.70;99.90;;;;;;5071290;28;20609;-45
2022/06/01 00:15:43;;;;;;;6.77;6.40;;;13.60;99.90;;;;;;5071490;28;20197;-45
2022/06/01 00:18:10;;;;;;;6.37;5.90;;;13.70;99.90;;;;;;5060436;28;20221;-45
2022/06/01 00:20:38;;;;;;;6.50;5.90;;;13.60;99.90;;;;;;5070146;28;20609;-45
2022/06/01 00:23:06;;;;;;;5.77;5.53;;;13.60;99.90;;;;;;5070308;28;20767;-45
2022/06/01 00:25:35;;;;;;;6.57;6.17;;;13.50;99.90;;;;;;5071609;28;20222;-45
2022/06/01 00:28:02;;;;;;;6.63;6.10;;;13.50;99.90;;;;;;5071983;28;20267;-45
2022/06/01 00:30:29;;;;;;;6.30;5.93;;;13.40;99.90;;;;;;5070863;28;20228;-45
2022/06/01 00:32:56;;;;;;;4.97;4.77;;;13.30;99.90;;;;;;5070065;28;20200;-45
2022/06/01 00:35:25;;;;;;;6.53;6.00;;;13.30;99.90;;;;;;5069055;28;20197;-45
2022/06/01 00:37:52;;;;;;;5.83;5.53;;;13.20;99.90;;;;;;5071733;28;20229;-45
2022/06/01 00:40:21;;;;;;;6.73;6.23;;;13.20;99.90;;;;;;5070319;28;20617;-45
2022/06/01 00:42:53;;;;;;;6.40;6.00;;;13.30;99.90;;;;;;5068988;28;20613;-45
2022/06/01 00:45:22;;;;;;;5.50;5.30;;;13.30;99.90;;;;;;5071492;28;20273;-45
2022/06/01 00:47:50;;;;;;;6.10;5.73;;;13.20;99.90;;;;;;5071742;28;20213;-45
2022/06/01 00:50:20;;;;;;;6.10;5.73;;;13.20;99.90;;;;;;5068109;28;20742;-45
2022/06/01 00:52:50;;;;;;;5.57;5.17;;;13.20;99.90;;;;;;5069304;28;20205;-45
2022/06/01 00:55:20;;;;;;;5.93;5.60;;;13.10;99.90;;;;;;5070054;28;20197;-45
2022/06/01 00:57:51;;;;;;;5.87;5.43;;;13.10;99.90;;;;;;5071470;28;20219;-45
2022/06/01 01:00:21;;;;;;;5.60;5.30;;;13.10;99.90;;;;;;5070943;28;20197;-45
2022/06/01 01:02:50;;;;;;;5.23;4.83;;;13.10;99.90;;;;;;5070537;28;20669;-44
2022/06/01 01:05:18;;;;;;;5.97;5.77;;;13.20;99.90;;;;;;5070719;28;20204;-45
2022/06/01 01:07:46;;;;;;;4.80;4.47;;;13.20;99.90;;;;;;5070053;28;20225;-45
2022/06/01 01:10:15;;;;;;;4.27;4.17;;;13.20;99.90;;;;;;5069886;28;20200;-45
2022/06/01 01:12:58;;;;;;;5.27;5.07;;;13.20;99.90;;;;;;5066958;28;20197;-45
2022/06/01 01:15:30;;;;;;;5.53;5.13;;;13.20;99.90;;;;;;5071382;28;20202;-45
2022/06/01 01:17:58;;;;;;;6.37;5.87;;;13.20;99.90;;;;;;5071622;28;20228;-45
2022/06/01 01:20:27;;;;;;;4.93;4.47;;;13.20;99.90;;;;;;5069011;28;20259;-45
2022/06/01 01:23:05;;;;;;;4.87;4.67;;;13.20;99.90;;;;;;5070255;28;20212;-45
2022/06/01 01:25:35;;;;;;;5.53;5.23;;;13.30;99.90;;;;;;5065323;28;20193;-45
2022/06/01 01:28:05;;;;;;;5.53;5.17;;;13.20;99.90;;;;;;5071522;28;20213;-45
2022/06/01 01:30:45;;;;;;;6.20;5.90;;;13.20;99.90;;;;;;5070844;28;20224;-45
2022/06/01 01:33:14;;;;;;;7.27;4.50;;;13.30;99.90;;;;;;5063965;28;20209;-45
2022/06/01 01:35:42;;;;;;;5.20;4.80;;;13.30;99.90;;;;;;5071182;28;20196;-45
2022/06/01 01:38:11;;;;;;;5.33;4.93;;;13.30;99.90;;;;;;5070321;28;20225;-45
2022/06/01 01:40:40;;;;;;;5.00;4.67;;;13.30;99.90;;;;;;5070490;28;20197;-44
2022/06/01 01:43:08;;;;;;;4.73;4.53;;;13.30;99.90;;;;;;5070610;28;20201;-45
2022/06/01 01:45:37;;;;;;;5.10;4.73;;;13.30;99.90;;;;;;5072740;28;20280;-45
2022/06/01 01:48:04;;;;;;;5.60;5.30;;;13.30;99.90;;;;;;5074230;28;20230;-45
2022/06/01 01:50:33;;;;;;;5.10;4.70;;;13.30;99.90;;;;;;5075123;28;20667;-45
2022/06/01 01:53:00;;;;;;;4.97;4.77;;;13.30;99.90;;;;;;5072611;28;20216;-45
2022/06/01 01:55:37;;;;;;;5.57;5.23;;;13.30;99.90;;;;;;5074340;28;20200;-45
2022/06/01 01:58:14;;;;;;;3.83;3.73;;;13.30;99.90;;;;;;5074050;28;20262;-45
2022/06/01 02:00:45;;;;;;;3.37;3.07;;;13.20;99.90;;;;;;5075042;28;20620;-45
2022/06/01 02:03:18;;;;;;;4.47;4.00;;;13.20;99.90;;;;;;5073245;28;20663;-44
2022/06/01 02:08:47;;;;;;;4.47;3.40;;;13.20;99.90;;;;;;5054154;28;20185;-45
2022/06/01 02:14:07;;;;;;;3.47;3.37;;;13.10;99.90;;;;;;5072922;28;20202;-45
2022/06/01 02:16:39;;;;;;;3.60;3.50;;;13.00;99.90;;;;;;5074747;28;20217;-45
2022/06/01 02:19:10;;;;;;;3.83;3.53;;;13.00;99.90;;;;;;5074767;28;20673;-45
2022/06/01 02:21:38;;;;;;;3.27;3.07;;;12.90;99.90;;;;;;5073139;28;20259;-45
2022/06/01 02:24:05;;;;;;;2.73;2.63;;;12.90;99.90;;;;;;5072627;28;20228;-45
2022/06/01 02:26:33;;;;;;;3.50;3.20;;;12.90;99.90;;;;;;5074365;28;20217;-45
2022/06/01 02:29:08;;;;;;;2.63;2.60;;;12.90;99.90;;;;;;5073475;28;20262;-45
2022/06/01 02:31:37;;;;;;;3.60;3.40;;;12.80;99.90;;;;;;5073561;28;20235;-45
2022/06/01 02:34:07;;;;;;;3.60;3.40;;;12.80;99.90;;;;;;5072493;28;20200;-45
2022/06/01 02:36:34;;;;;;;3.43;3.23;;;12.80;99.90;;;;;;5074009;28;20225;-45
2022/06/01 02:39:04;;;;;;;3.27;3.17;;;12.90;99.90;;;;;;5073520;28;20296;-45
2022/06/01 02:44:18;;;;;;;4.20;3.90;;;12.90;99.90;;;;;;5065539;28;20228;-45
2022/06/01 02:46:46;;;;;;;4.20;4.03;;;12.90;99.90;;;;;;5071805;28;21425;-45
2022/06/01 02:49:13;;;;;;;5.23;4.93;;;12.90;99.90;;;;;;5074260;28;20197;-45
2022/06/01 02:51:40;;;;;;;4.87;4.63;;;12.90;99.90;;;;;;5074068;28;20243;-45
2022/06/01 02:54:08;;;;;;;6.20;5.80;;;12.90;99.90;;;;;;5071154;28;20730;-45
2022/06/01 02:56:35;;;;;;;6.77;6.37;;;13.00;99.90;;;;;;5072710;28;20270;-45
2022/06/01 02:59:02;;;;;;;5.97;5.70;;;12.90;99.90;;;;;;5073889;28;20193;-45
2022/06/01 03:01:31;;;;;;;5.90;5.40;;;12.90;99.90;;;;;;5073706;28;20205;-45
2022/06/01 03:03:58;;;;;;;5.83;5.53;;;12.90;99.90;;;;;;5072324;28;20252;-45
2022/06/01 03:06:25;;;;;;;5.43;5.03;;;13.00;99.90;;;;;;5072234;28;20221;-45
2022/06/01 03:08:52;;;;;;;6.07;5.47;;;13.00;99.90;;;;;;5073610;28;20205;-44
2022/06/01 03:11:19;;;;;;;6.30;5.93;;;13.00;99.90;;;;;;5070507;28;20608;-44
2022/06/01 03:13:46;;;;;;;5.73;5.43;;;13.00;99.90;;;;;;5070871;28;20209;-45
2022/06/01 03:16:13;;;;;;;5.67;5.27;;;13.00;99.90;;;;;;5073616;28;20196;-45
2022/06/01 03:18:41;;;;;;;6.47;6.03;;;12.90;99.90;;;;;;5073826;28;20247;-45
2022/06/01 03:21:08;;;;;;;6.40;6.00;;;12.90;99.90;;;;;;5073433;28;20205;-45
2022/06/01 03:23:35;;;;;;;6.43;6.03;;;12.90;99.90;;;;;;5071296;28;20223;-45
2022/06/01 03:26:02;;;;;;;6.70;6.40;;;12.90;99.90;;;;;;5070595;28;21998;-45
2022/06/01 03:28:29;;;;;;;7.27;6.77;;;12.90;99.90;;;;;;5070078;28;20265;-45
2022/06/01 03:30:56;;;;;;;8.10;7.47;;;13.00;99.90;;;;;;5073398;28;20200;-45
2022/06/01 03:33:23;;;;;;;8.80;7.93;;;13.00;99.90;;;;;;5070790;28;20660;-45
2022/06/01 03:35:52;;;;;;;7.67;6.97;;;13.00;99.90;;;;;;5072973;28;20204;-45
2022/06/01 03:38:19;;;;;;;7.97;7.40;;;13.00;99.90;;;;;;5097145;22;20235;-51
2022/06/01 03:40:46;;;;;;;8.77;8.17;;;13.00;99.90;;;;;;5078076;28;20207;-51
2022/06/01 03:43:13;;;;;;;8.73;7.90;;;13.00;99.90;;;;;;5071608;28;20402;-51
2022/06/01 03:48:27;;;;;;;8.77;7.87;;;13.00;99.90;;;;;;5073300;28;20220;-51
2022/06/01 03:50:56;;;;;;;9.83;9.00;;;13.10;99.90;;;;;;5054975;28;20672;-51
2022/06/01 03:53:24;;;;;;;8.87;8.27;;;13.10;99.90;;;;;;5071117;28;20209;-51
2022/06/01 03:55:52;;;;;;;8.67;7.97;;;13.10;99.90;;;;;;5057690;28;20668;-51
2022/06/01 03:58:21;;;;;;;9.23;7.93;;;13.20;99.90;;;;;;5053030;28;20604;-51
2022/06/01 04:00:48;;;;;;;8.67;7.70;;;13.20;99.90;;;;;;5052992;28;20198;-50
2022/06/01 04:03:16;;;;;;;13.27;9.40;;;13.20;99.90;;;;;;5063079;28;20197;-50
2022/06/01 04:05:43;;;;;;;8.93;8.17;;;13.20;99.90;;;;;;5063193;28;20269;-51
2022/06/01 04:08:12;;;;;;;10.27;8.37;;;13.20;99.90;;;;;;5064412;28;20274;-50
2022/06/01 04:10:42;;;;;;;10.23;9.33;;;13.30;99.90;;;;;;5074163;28;20815;-50
2022/06/01 04:13:09;;;;;;;10.27;9.37;;;13.30;99.90;;;;;;5068819;28;20232;-50
2022/06/01 04:15:36;;;;;;;9.97;9.00;;;13.30;99.90;;;;;;5071909;28;20198;-51
2022/06/01 04:18:03;;;;;;;11.43;10.23;;;13.30;99.90;;;;;;5066801;28;20218;-50
2022/06/01 04:20:30;;;;;;;11.67;9.83;;;13.40;99.90;;;;;;5070403;28;20254;-51
2022/06/01 04:23:00;;;;;;;10.77;9.80;;;13.40;99.90;;;;;;5068624;28;20242;-50
2022/06/01 04:25:30;;;;;;;10.07;9.17;;;13.40;99.90;;;;;;5071318;28;20227;-50
2022/06/01 04:27:57;;;;;;;10.07;9.17;;;13.50;99.90;;;;;;5070840;28;20771;-51
2022/06/01 04:30:24;;;;;;;8.50;7.97;;;13.50;99.90;;;;;;5069044;28;20691;-51
2022/06/01 04:32:53;;;;;;;10.43;9.27;;;13.50;99.90;;;;;;5068776;28;20250;-51
2022/06/01 04:35:22;;;;;;;8.73;8.13;;;13.50;99.90;;;;;;5069771;28;21004;-51
2022/06/01 04:37:50;;;;;;;9.40;8.60;;;13.50;99.90;;;;;;5067390;28;20229;-51
2022/06/01 04:40:19;;;;;;;8.93;8.13;;;13.60;99.90;;;;;;5069762;28;20209;-51
2022/06/01 04:42:47;;;;;;;7.47;6.87;;;13.60;99.90;;;;;;5067639;28;20205;-51
2022/06/01 04:45:17;;;;;;;9.00;8.30;;;13.60;99.90;;;;;;5070700;28;20235;-51
2022/06/01 04:47:44;;;;;;;9.93;9.13;;;13.70;99.90;;;;;;5070505;28;20715;-51
2022/06/01 04:50:12;;;;;;;9.53;8.73;;;13.70;99.90;;;;;;5071630;28;20306;-52
2022/06/01 04:52:39;;;;;;;8.20;7.50;;;13.70;99.90;;;;;;5070221;28;20613;-51
2022/06/01 04:55:08;;;;;;;8.17;7.57;;;13.80;99.90;;;;;;5067994;28;20190;-52
2022/06/01 04:57:36;;;;;;;8.77;8.07;;;13.90;99.90;;;;;;5068183;28;20262;-52
2022/06/01 05:00:07;;;;;;;9.33;8.63;;;14.00;99.90;;;;;;5068455;28;20251;-51
2022/06/01 05:02:34;;;;;;;9.93;8.07;;;14.10;99.90;;;;;;5070209;28;20189;-50
2022/06/01 05:05:01;;;;;;;7.93;7.27;;;14.30;99.90;;;;;;5068716;28;20213;-51
2022/06/01 05:07:31;;;;;;;7.87;7.37;;;14.70;99.90;;;;;;5069330;28;20262;-51
2022/06/01 05:09:58;;;;;;;7.93;6.97;;;14.90;99.90;;;;;;5066730;28;20197;-51
2022/06/01 05:12:25;;;;;;;8.60;8.00;;;15.10;99.90;;;;;;5065712;28;20224;-51
2022/06/01 05:14:52;;;;;;;8.10;7.67;;;16.00;99.90;;;;;;5070110;28;20685;-50
2022/06/01 05:17:20;;;;;;;8.33;7.70;;;16.40;99.90;;;;;;5067871;28;20350;-51
2022/06/01 05:19:47;;;;;;;6.30;5.90;;;17.30;99.90;;;;;;5067903;28;20200;-51
2022/06/01 05:22:14;;;;;;;6.93;6.43;;;17.40;99.90;;;;;;5067380;28;20255;-52
2022/06/01 05:24:41;;;;;;;6.67;6.30;;;17.60;99.90;;;;;;5068270;28;20274;-51
2022/06/01 05:27:08;;;;;;;7.23;6.67;;;16.90;99.90;;;;;;5069256;28;20270;-51
2022/06/01 05:29:35;;;;;;;6.30;5.80;;;16.50;99.90;;;;;;5074606;28;20603;-50
2022/06/01 05:32:03;;;;;;;10.17;6.93;;;16.30;99.90;;;;;;5075983;28;20250;-51
2022/06/01 05:34:31;;;;;;;6.73;6.33;;;16.90;99.90;;;;;;5075077;28;20201;-51
2022/06/01 05:36:58;;;;;;;6.93;6.43;;;17.50;99.90;;;;;;5074257;28;20224;-51
2022/06/01 05:39:25;;;;;;;6.87;6.37;;;18.30;99.90;;;;;;5058550;28;20667;-50
2022/06/01 05:41:52;;;;;;;7.83;5.37;;;18.60;99.90;;;;;;5087286;28;20212;-51
2022/06/01 05:44:19;;;;;;;3.93;3.83;;;19.50;99.90;;;;;;5076148;28;20197;-51
2022/06/01 05:46:46;;;;;;;4.87;4.57;;;19.90;99.90;;;;;;5072367;28;20294;-52
2022/06/01 05:49:14;;;;;;;3.37;3.27;;;19.90;99.90;;;;;;5070375;28;20205;-51
2022/06/01 05:51:42;;;;;;;3.10;2.90;;;19.90;99.90;;;;;;5067622;28;20283;-50
2022/06/01 05:54:09;;;;;;;3.13;3.03;;;20.10;99.90;;;;;;5077114;28;20193;-51
2022/06/01 05:56:36;;;;;;;3.30;3.07;;;19.50;99.90;;;;;;5077731;28;20190;-52
2022/06/01 05:59:03;;;;;;;3.00;2.87;;;19.00;99.90;;;;;;5070085;28;20205;-51
2022/06/01 06:01:31;;;;;;;3.33;3.13;;;19.60;99.90;;;;;;5067054;28;20264;-52
2022/06/01 06:03:58;;;;;;;3.40;3.30;;;19.80;99.90;;;;;;5072538;28;20663;-52
2022/06/01 06:06:25;;;;;;;3.87;3.57;;;20.70;99.90;;;;;;5066448;28;20263;-51
2022/06/01 06:08:56;;;;;;;2.90;2.70;;;21.80;99.90;;;;;;5070360;28;20247;-52
2022/06/01 06:11:25;;;;;;;2.70;2.60;;;21.30;99.90;;;;;;5081689;28;20208;-51
2022/06/01 06:13:52;;;;;;;3.50;3.30;;;20.90;99.90;;;;;;5089819;28;20557;-52
2022/06/01 06:16:19;;;;;;;2.90;2.83;;;20.30;99.90;;;;;;5070692;28;20201;-51
2022/06/01 06:18:47;;;;;;;3.17;3.07;;;19.90;99.90;;;;;;5068866;28;20263;-52
2022/06/01 06:21:14;;;;;;;3.10;2.90;;;19.50;99.90;;;;;;5062671;28;20212;-52
2022/06/01 06:23:41;;;;;;;2.83;2.73;;;20.30;99.90;;;;;;5070573;28;20268;-51
2022/06/01 06:26:10;;;;;;;2.77;2.57;;;21.30;99.90;;;;;;5068554;28;20222;-52
2022/06/01 06:28:38;;;;;;;2.97;2.77;;;22.30;99.90;;;;;;5068295;28;20217;-52
2022/06/01 06:31:06;;;;;;;2.23;2.13;;;23.00;99.90;;;;;;5080299;28;20220;-52
2022/06/01 06:33:32;;;;;;;3.73;3.43;;;23.40;99.90;;;;;;5066974;28;20197;-51
2022/06/01 06:36:01;;;;;;;2.90;2.70;;;23.80;99.90;;;;;;5057386;28;20573;-51
2022/06/01 06:38:31;;;;;;;2.23;2.03;;;23.10;99.90;;;;;;5070889;28;20270;-52
2022/06/01 06:40:59;;;;;;;2.10;2.00;;;23.40;99.90;;;;;;5065361;28;20217;-51
2022/06/01 06:43:30;;;;;;;2.13;2.10;;;24.50;99.90;;;;;;5072823;28;20201;-51
2022/06/01 06:45:59;;;;;;;2.20;2.10;;;25.30;99.90;;;;;;5066996;28;20217;-53
2022/06/01 06:48:27;;;;;;;1.80;1.60;;;25.60;99.90;;;;;;5073141;28;20625;-53
2022/06/01 06:50:54;;;;;;;2.70;1.40;;;25.90;99.90;;;;;;5072024;28;20209;-52
2022/06/01 06:53:25;;;;;;;0.93;0.93;;;25.20;99.90;;;;;;5072923;28;20205;-53
2022/06/01 06:55:52;;;;;;;2.40;1.30;;;24.60;99.90;;;;;;5067497;28;20575;-52
2022/06/01 06:58:19;;;;;;;1.63;1.63;;;24.70;99.90;;;;;;5070900;28;20340;-52
2022/06/01 07:00:48;;;;;;;3.33;1.47;;;24.00;99.90;;;;;;5072343;28;20197;-52
2022/06/01 07:03:16;;;;;;;1.90;1.20;;;23.60;99.90;;;;;;5068637;28;20197;-52
2022/06/01 07:08:29;;;;;;;1.60;1.50;;;23.40;99.90;;;;;;5073299;28;20594;-52
2022/06/01 07:10:58;;;;;;;1.27;1.27;;;23.20;99.90;;;;;;5078862;28;20197;-52
2022/06/01 07:13:27;;;;;;;2.23;1.40;;;22.80;99.90;;;;;;5073150;28;20280;-52
2022/06/01 07:16:08;;;;;;;2.77;1.60;;;23.10;99.90;;;;;;5079505;28;20203;-52
2022/06/01 07:18:35;;;;;;;1.67;1.57;;;23.80;99.90;;;;;;5073125;28;20221;-52
2022/06/01 07:21:02;;;;;;;1.30;1.30;;;24.70;99.90;;;;;;5074885;28;20202;-52
2022/06/01 07:23:29;;;;;;;1.60;1.50;;;25.10;99.90;;;;;;5070880;28;20434;-52
2022/06/01 07:25:56;;;;;;;1.73;1.63;;;25.60;99.90;;;;;;5069618;28;20258;-52
2022/06/01 07:28:25;;;;;;;1.00;1.00;;;25.70;99.90;;;;;;5071120;28;20221;-53
2022/06/01 07:30:56;;;;;;;1.33;1.33;;;26.50;99.90;;;;;;5071336;28;20346;-53
2022/06/01 07:33:28;;;;;;;1.70;1.70;;;26.70;99.90;;;;;;5071398;28;20193;-53
2022/06/01 07:35:55;;;;;;;1.70;1.70;;;27.20;99.90;;;;;;5071497;28;20197;-53
2022/06/01 07:43:54;;;;;;;1.10;1.10;;;26.70;99.90;;;;;;5070900;28;20204;-52
2022/06/01 07:46:21;;;;;;;1.10;1.10;;;26.40;99.90;;;;;;5071040;28;20728;-53
2022/06/01 07:48:49;;;;;;;0.90;0.90;;;26.30;99.90;;;;;;5071726;28;20276;-53
2022/06/01 07:51:18;;;;;;;0.80;0.80;;;26.30;99.90;;;;;;5070813;28;20200;-53
2022/06/01 07:53:48;;;;;;;1.10;1.10;;;26.60;99.90;;;;;;5070762;28;20696;-52
2022/06/01 07:56:15;;;;;;;1.20;1.20;;;26.60;99.90;;;;;;5064609;28;20196;-52
2022/06/01 07:58:43;;;;;;;1.48;0.90;;;26.60;99.90;;;;;;5064789;28;20212;-53
2022/06/01 08:01:10;;;;;;;0.93;0.93;;;27.00;99.90;;;;;;5065759;28;20890;-52
2022/06/01 08:03:37;;;;;;;0.70;0.70;;;27.70;99.90;;;;;;5064814;28;20193;-53
2022/06/01 08:06:06;;;;;;;1.13;1.13;;;27.70;99.90;;;;;;5065794;28;20232;-53
2022/06/01 08:08:33;;;;;;;1.92;1.45;;;28.10;99.90;;;;;;5070360;28;20259;-53
2022/06/01 08:11:00;;;;;;;8.60;0.90;;;28.50;99.90;;;;;;5070577;28;20197;-53
2022/06/01 08:13:26;;;;;;;1.30;0.80;;;28.50;99.90;;;;;;5070344;28;20685;-53
2022/06/01 08:15:54;;;;;;;0.65;0.65;;;29.00;99.90;;;;;;5067164;28;20294;-53
2022/06/01 08:18:23;;;;;;;2.17;1.23;;;28.90;99.90;;;;;;5062369;28;20756;-53
2022/06/01 08:20:51;;;;;;;0.88;0.88;;;29.00;99.90;;;;;;5062476;28;20213;-53
2022/06/01 08:23:20;;;;;;;0.70;0.70;;;29.10;99.90;;;;;;5063849;28;20275;-53
2022/06/01 08:25:48;;;;;;;1.02;1.02;;;29.50;99.90;;;;;;5065585;28;20274;-53
2022/06/01 08:28:15;;;;;;;0.70;0.70;;;29.40;99.90;;;;;;5066447;28;20564;-53
2022/06/01 08:30:42;;;;;;;0.60;0.60;;;29.40;99.90;;;;;;5055289;28;20562;-54
2022/06/01 08:33:10;;;;;;;0.77;0.77;;;29.70;99.90;;;;;;5067089;28;20212;-53
2022/06/01 08:35:39;;;;;;;0.57;0.50;;;30.30;99.90;;;;;;5068404;28;20616;-53
2022/06/01 08:38:07;;;;;;;0.80;0.80;;;29.80;99.90;;;;;;5070692;28;20714;-53
2022/06/01 08:40:53;;;;;;;0.68;0.68;;;30.20;99.90;;;;;;5074158;28;20197;-53
2022/06/01 08:43:22;;;;;;;0.60;0.60;;;30.10;99.90;;;;;;5068715;28;20622;-53
2022/06/01 08:45:54;;;;;;;3.50;0.80;;;29.80;99.90;;;;;;5071688;28;20274;-53
2022/06/01 08:48:34;;;;;;;0.80;0.80;;;29.80;99.30;;;;;;5070665;28;20262;-53
2022/06/01 08:51:02;;;;;;;0.73;0.70;;;30.00;99.90;;;;;;5064001;28;20200;-53
2022/06/01 08:53:30;;;;;;;2.15;0.70;;;30.20;99.70;;;;;;5069869;28;20250;-54
2022/06/01 08:56:01;;;;;;;0.77;0.77;;;30.50;97.50;;;;;;5065519;28;20251;-53
2022/06/01 08:58:34;;;;;;;1.25;1.13;;;30.30;97.40;;;;;;5061192;28;20336;-54
2022/06/01 09:01:12;;;;;;;0.63;0.63;;;30.40;97.40;;;;;;5063708;28;20550;-53
2022/06/01 09:03:45;;;;;;;0.50;0.50;;;30.50;98.90;;;;;;5064402;28;20269;-53
2022/06/01 09:06:18;;;;;;;0.80;0.80;;;30.70;98.80;;;;;;5069640;28;20266;-53
2022/06/01 09:09:01;;;;;;;1.95;1.17;;;30.50;96.60;;;;;;5071264;28;20225;-53
2022/06/01 09:11:33;;;;;;;1.20;0.50;;;30.80;95.50;;;;;;5065091;28;20193;-53
2022/06/01 09:14:06;;;;;;;0.75;0.73;;;31.20;98.00;;;;;;5071064;28;20283;-53
2022/06/01 09:16:35;;;;;;;0.80;0.75;;;31.40;94.70;;;;;;5068809;28;20201;-53
2022/06/01 09:19:02;;;;;;;2.08;0.80;;;31.50;94.00;;;;;;5068922;28;20201;-53
2022/06/01 09:24:20;;;;;;;0.70;0.70;;;31.30;94.30;;;;;;5066148;28;20532;-53
2022/06/01 09:26:58;;;;;;;0.82;0.82;;;31.20;93.30;;;;;;5069508;28;20274;-53
2022/06/01 09:29:28;;;;;;;0.85;0.60;;;31.10;95.50;;;;;;5070069;28;20207;-53
2022/06/01 09:32:02;;;;;;;0.73;0.73;;;31.20;93.50;;;;;;5070256;28;20200;-53
2022/06/01 09:34:38;;;;;;;2.10;0.85;;;31.70;93.10;;;;;;5066656;28;20668;-54
2022/06/01 09:39:33;;;;;;;0.88;0.80;;;31.70;93.50;;;;;;5088555;22;20221;-48
2022/06/01 09:42:17;;;;;;;0.90;0.90;;;30.40;92.90;;;;;;5070076;28;20201;-47
2022/06/01 09:44:48;;;;;;;1.63;1.20;;;29.40;96.40;;;;;;5062154;28;20197;-45
2022/06/01 09:47:31;;;;;;;1.75;0.93;;;28.50;95.70;;;;;;5067191;28;20249;-45
2022/06/01 09:50:00;;;;;;;2.33;1.20;;;27.70;96.90;;;;;;5089410;28;20288;-44
2022/06/01 09:52:32;;;;;;;1.20;1.20;;;27.50;99.60;;;;;;5088361;28;20287;-45
2022/06/01 09:55:10;;;;;;;5.47;1.23;;;27.90;98.60;;;;;;5089472;28;20196;-45
2022/06/01 09:57:38;;;;;;;1.60;1.50;;;28.10;97.40;;;;;;5087526;28;20637;-45
2022/06/01 10:06:08;;;;;;;1.88;1.77;;;28.40;96.90;;;;;;5085860;28;20277;-45
2022/06/01 10:08:42;;;;;;;1.98;1.80;;;28.10;97.30;;;;;;5084449;28;20859;-45
2022/06/01 10:11:27;;;;;;;2.05;1.92;;;28.80;95.60;;;;;;5090421;28;20284;-45
2022/06/01 10:14:05;;;;;;;1.38;1.27;;;28.90;95.90;;;;;;5085588;28;20283;-45
2022/06/01 10:16:42;;;;;;;1.90;1.80;;;29.10;93.70;;;;;;5087968;28;20200;-45
2022/06/01 10:19:13;;;;;;;1.33;1.33;;;28.80;95.40;;;;;;5089804;28;20701;-45
2022/06/01 10:21:50;;;;;;;1.67;1.35;;;27.80;97.00;;;;;;5092396;28;20204;-44
2022/06/01 10:24:24;;;;;;;1.73;1.55;;;27.40;97.20;;;;;;5090424;28;20658;-45
2022/06/01 10:26:58;;;;;;;2.13;1.40;;;26.50;97.30;;;;;;5091799;28;20305;-45
2022/06/01 10:29:32;;;;;;;1.63;1.53;;;26.20;98.10;;;;;;5086405;28;20216;-44
2022/06/01 10:32:04;;;;;;;1.63;1.10;;;26.00;97.90;;;;;;5090072;28;20200;-45
2022/06/01 10:34:38;;;;;;;4.00;1.20;;;25.80;96.80;;;;;;5093451;28;20245;-45
2022/06/01 10:37:17;;;;;;;2.47;2.27;;;26.00;99.00;;;;;;5093535;28;20247;-45
2022/06/01 10:39:48;;;;;;;1.37;1.37;;;26.20;98.00;;;;;;5091881;28;20627;-44
2022/06/01 10:42:21;;;;;;;1.47;1.37;;;25.50;97.50;;;;;;5088838;28;20226;-44
2022/06/01 10:44:56;;;;;;;1.67;1.58;;;24.90;99.20;;;;;;5089795;28;20482;-45
2022/06/01 10:47:34;;;;;;;1.20;1.20;;;24.50;97.80;;;;;;5091663;28;20224;-44
2022/06/01 10:50:06;;;;;;;1.70;1.30;;;24.60;98.10;;;;;;5086148;28;20689;-44
2022/06/01 10:52:35;;;;;;;1.00;1.00;;;24.50;98.70;;;;;;5088584;28;20205;-44
2022/06/01 10:55:12;;;;;;;1.60;1.60;;;24.70;99.50;;;;;;5092505;28;20193;-44
2022/06/01 10:57:42;;;;;;;1.97;1.17;;;24.30;98.50;;;;;;5088817;28;20244;-45
2022/06/01 11:00:15;;;;;;;1.17;1.13;;;23.80;98.70;;;;;;5089320;28;20200;-45
2022/06/01 11:03:08;;;;;;;2.50;1.30;;;23.70;99.50;;;;;;5089965;28;20262;-45
2022/06/01 11:05:44;;;;;;;1.43;1.33;;;23.80;99.00;;;;;;5084886;28;20574;-45
2022/06/01 11:08:32;;;;;;;3.20;1.70;;;23.90;98.70;;;;;;5073686;28;20232;-45
2022/06/01 11:11:06;;;;;;;1.07;1.03;;;24.40;99.20;;;;;;5084824;28;20201;-45
2022/06/01 11:14:03;;;;;;;1.13;1.07;;;24.90;97.20;;;;;;5091494;28;20195;-45
2022/06/01 11:16:48;;;;;;;1.43;1.43;;;25.10;98.10;;;;;;5083405;28;20242;-44
2022/06/01 11:19:29;;;;;;;2.00;1.50;;;24.50;98.50;;;;;;5083056;28;20234;-45
2022/06/01 11:22:10;;;;;;;3.13;2.90;;;24.20;99.60;;;;;;5082730;28;20215;-45
2022/06/01 11:24:52;;;;;;;2.00;1.90;;;24.40;99.50;;;;;;5081949;28;20204;-45
2022/06/01 11:27:32;;;;;;;1.47;1.37;;;24.20;99.90;;;;;;5077132;28;20250;-45
2022/06/01 11:30:08;;;;;;;2.00;1.50;;;24.00;99.90;;;;;;5091647;28;20275;-45
2022/06/01 11:32:43;;;;;;;1.60;1.50;;;23.90;98.90;;;;;;5085934;28;20843;-45
2022/06/01 11:35:20;;;;;;;1.97;1.47;;;23.90;99.90;;;;;;5090980;28;20241;-45
2022/06/01 11:37:56;;;;;;;4.83;1.47;;;23.90;99.90;;;;;;5091783;28;20656;-45
2022/06/01 11:40:34;;;;;;;2.23;1.93;;;23.80;99.00;;;;;;5091761;28;20196;-45
2022/06/01 11:43:06;;;;;;;3.73;1.70;;;23.40;99.90;;;;;;5091901;28;20192;-45
2022/06/01 11:45:36;;;;;;;2.13;1.73;;;23.50;99.90;;;;;;5084920;28;20284;-45
2022/06/01 11:48:08;;;;;;;2.47;1.67;;;23.80;99.90;;;;;;5092904;28;20224;-45
2022/06/01 11:50:57;;;;;;;2.10;1.60;;;24.20;99.90;;;;;;5092316;28;20262;-45
2022/06/01 11:53:32;;;;;;;1.40;1.40;;;24.40;98.70;;;;;;5078880;28;20193;-45
2022/06/01 11:56:16;;;;;;;1.77;1.30;;;24.20;99.90;;;;;;5082506;28;20204;-45
2022/06/01 11:58:57;;;;;;;1.90;1.80;;;24.40;99.70;;;;;;5071409;28;20216;-45
2022/06/01 12:01:37;;;;;;;0.90;0.90;;;24.30;99.20;;;;;;5085180;28;20201;-45
2022/06/01 12:04:19;;;;;;;1.67;1.40;;;24.20;99.90;;;;;;5088023;28;20273;-45
2022/06/01 12:06:52;;;;;;;1.60;1.13;;;24.10;99.90;;;;;;5092600;28;20220;-45
2022/06/01 12:09:44;;;;;;;1.60;1.20;;;23.80;99.90;;;;;;5092492;28;20224;-45
2022/06/01 12:12:41;;;;;;;2.53;1.27;;;23.70;99.90;;;;;;5075549;28;20192;-45
2022/06/01 12:15:18;;;;;;;2.10;2.00;;;23.70;99.90;;;;;;5087591;28;20192;-44
2022/06/01 12:18:08;;;;;;;2.13;1.87;;;23.60;99.90;;;;;;5083304;28;20224;-45
2022/06/01 12:20:49;;;;;;;1.87;1.77;;;23.30;99.90;;;;;;5090271;28;20715;-45
2022/06/01 12:30:03;;;;;;;3.03;1.90;;;22.80;99.90;;;;;;5075051;28;20195;-45
2022/06/01 12:32:32;;;;;;;2.23;2.00;;;22.60;99.90;;;;;;5085582;28;20205;-45
2022/06/01 12:35:11;;;;;;;6.23;1.87;;;22.30;99.90;;;;;;5090502;28;20254;-44
2022/06/01 12:37:48;;;;;;;1.90;1.60;;;22.20;99.90;;;;;;5085954;28;20256;-45
2022/06/01 12:40:20;;;;;;;1.67;1.57;;;22.00;99.90;;;;;;5087928;28;20196;-45
2022/06/01 12:42:56;;;;;;;2.20;2.10;;;21.80;99.90;;;;;;5082286;28;20722;-45
2022/06/01 12:45:28;;;;;;;2.30;2.03;;;21.50;99.90;;;;;;5086645;28;20196;-44
2022/06/01 12:48:00;;;;;;;2.30;2.20;;;21.00;99.90;;;;;;5085199;28;20220;-44
2022/06/01 12:50:30;;;;;;;2.40;2.20;;;20.70;99.90;;;;;;5090100;28;20269;-44
2022/06/01 12:53:13;;;;;;;2.33;2.13;;;20.50;99.90;;;;;;5086553;28;20200;-45
2022/06/01 12:55:40;;;;;;;2.17;2.07;;;20.40;99.90;;;;;;5090451;28;20201;-44
2022/06/01 12:58:17;;;;;;;3.03;2.87;;;20.20;99.90;;;;;;5090311;28;20648;-44
2022/06/01 13:00:50;;;;;;;2.30;2.27;;;20.10;99.90;;;;;;5089692;28;20604;-44
2022/06/01 13:03:19;;;;;;;4.73;2.67;;;19.90;99.90;;;;;;5086779;28;20200;-44
2022/06/01 13:05:52;;;;;;;2.77;2.67;;;19.90;99.90;;;;;;5090325;28;20241;-44
2022/06/01 13:08:25;;;;;;;3.40;2.00;;;19.90;99.90;;;;;;5090151;28;20220;-45
2022/06/01 13:10:52;;;;;;;2.50;2.30;;;19.90;99.90;;;;;;5089433;28;20204;-44
2022/06/01 13:13:23;;;;;;;3.00;2.87;;;19.70;99.90;;;;;;5089531;28;20197;-44
2022/06/01 13:15:58;;;;;;;2.87;2.67;;;19.60;99.90;;;;;;5088864;28;20192;-44
2022/06/01 13:18:30;;;;;;;4.20;2.93;;;19.50;99.90;;;;;;5085890;28;20262;-44
2022/06/01 13:21:04;;;;;;;2.67;2.47;;;19.40;99.90;;;;;;5089167;28;20202;-45
2022/06/01 13:23:43;;;;;;;3.00;2.90;;;19.40;99.90;;;;;;5086538;28;20192;-44
2022/06/01 13:26:13;;;;;;;3.20;3.03;;;19.30;99.90;;;;;;5090134;28;20197;-45
2022/06/01 13:28:40;;;;;;;3.60;3.20;;;19.30;99.90;;;;;;5090069;28;20240;-44
2022/06/01 13:31:08;;;;;;;3.20;3.00;;;19.30;99.90;;;;;;5086726;28;20234;-45
2022/06/01 13:33:39;;;;;;;5.77;3.77;;;19.40;99.90;;;;;;5084621;28;20201;-45
2022/06/01 13:36:09;;;;;;;5.13;3.80;;;19.40;99.90;;;;;;5086738;28;20288;-45
2022/06/01 13:38:43;;;;;;;3.77;3.27;;;19.50;99.90;;;;;;5090628;28;20273;-45
2022/06/01 13:41:16;;;;;;;4.70;4.30;;;19.50;99.90;;;;;;5091122;28;20204;-45